AirNav   Pilot Hours Calculator
 
 1199 users online  

9AK7 Cubdivision Airport
Big Lake, Alaska, USA

GOING TO BIG LAKE?


FAA INFORMATION EFFECTIVE 31 DECEMBER 2020

Location

FAA Identifier: 9AK7
Lat/Long: 61-35-23.3900N 149-48-59.9800W
61-35.389833N 149-48.999667W
61.5898306,-149.8166611
(estimated)
Elevation: 250 ft. / 76 m (estimated)
Variation: 22E (2000)
From city: 5 miles NE of BIG LAKE, AK
Time zone: UTC -9 (UTC -8 during Daylight Saving Time)
Zip code: 99652

Airport Operations

Airport use: Private use. Permission required prior to landing
Activation date: 06/2002
Control tower: no
ARTCC: ANCHORAGE CENTER
FSS: KENAI FLIGHT SERVICE STATION [907-283-7211]
Attendance: UNATNDD
Segmented circle: no

Airport Communications

CTAF: 122.8
WX AWOS-3P at IYS (8 nm E): 135.25 (907-373-3801)
WX AWOS-3P at BCV (14 nm SE): 135.55 (907-688-0826)
WX ASOS at FRN (20 nm S): 134.25

Nearby radio navigation aids

VOR radial/distance  VOR name  Freq  Var
BGQr055/4.5BIG LAKE VORTAC112.5019E
TEDr351/25.7ANCHORAGE VOR/DME113.1518E

Airport Services

Runway Information

Runway 4/22

Dimensions: 1200 x 100 ft. / 366 x 30 m
Surface: gravel
RUNWAY 4  RUNWAY 22
Traffic pattern: leftleft
Obstructions: 30 ft. pline, 60 ft. from runwaynone

Airport Ownership and Management from official FAA records

Ownership: Privately-owned
Owner: CUBDIVISION LOT OWNERS
P.O. BOX 521795
BIG LAKE, AK 99652
Phone 907-892-8244
Manager: LEE BUDDE
P.O. BOX 521795
BIG LAKE, AK 99552
Phone 907-892-8244

Airport Operational Statistics

Aircraft based on the field: 6
Single engine airplanes: 6
    

Additional Remarks

RY SOFT DURING SPRING.
ARPT NOT MAINTAINED IN WINTER.

Instrument Procedures

There are no published instrument procedures at 9AK7.

Some nearby airports with instrument procedures:

PAGQ - Big Lake Airport (3 nm S)
PAWS - Wasilla Airport (8 nm E)
PAUO - Willow Airport (12 nm NW)
PAFR - Bryant Army Airfield Heliport (20 nm S)
PAED - Elmendorf Air Force Base (20 nm S)
 
Loc | Ops | Rwys | IFR | FBO | Links
Com | Nav | Svcs | Stats | Notes

Crowley
 
Area around 9AK7 (Cubdivision Airport)
 
Road maps at: MapQuest Bing Google
 
Aerial photo
No photo
 
Sectional chart

 
Airport distance calculator
Flying to Cubdivision Airport? Find the distance to fly.

From to 9AK7

Sunrise and sunset
Times for 18-Jan-2021
 Local
(UTC-9)
 Zulu
(UTC)
Morning civil twilight08:5917:59
Sunrise09:5518:55
Sunset16:2501:25
Evening civil twilight17:2102:21

Current date and time
Zulu (UTC)  18-Jan-2021 15:09:56
Local (UTC-9)  18-Jan-2021 06:09:56
 
METAR
PABV 
13nm SE 
181456Z AUTO 05013KT 10SM BKN080 OVC095 04/M01 A2947 RMK AO2 WSHFT 1356 SLP985 T00391011 58082
PAFR 
20nm S 
181458Z AUTO 32003KT 10SM OVC055 04/M03 A2942 RMK AO2 PRESFR SLP971 T00401027 57080 $
PAED 
20nm S 
181456Z 00000KT 10SM FEW030 BKN060 M00/M03 A2946 RMK AO2A PRESFR SLP974 T10011030 57078 $
PAAQ 
21nm E 
181453Z AUTO 14021G26KT 10SM -RA SCT050 OVC070 03/M01 A2952 RMK AO2 PK WND 13026/1453 RAB48 SLP001 P0000 60000 T00281006 58078 TSNO
PAMR 
22nm S 
181453Z 33004KT 10SM BKN065 OVC075 01/M04 A2946 RMK AO2 PRESFR SLP977 T00061039 58083 $
TAF
PAED 
20nm S 
180300Z 1803/1909 25009KT 9999 BKN050 BKN100 620502 520304 QNH2972INS BECMG 1805/1806 VRB06KT 9999 SCT050 BKN120 520304 QNH2978INS BECMG 1809/1810 34010G15KT 9999 VCSH BKN040 OVC120 620404 530205 QNH2929INS BECMG 1816/1817 05012G20KT 6000 -RASN BR SCT015 BKN030 OVC060 620309 560106 QNH2889INS TEMPO 1817/1822 07025G35KT BECMG 1822/1823 03009KT 9999 VCSH SCT030 BKN060 620606 520304 QNH2888INS BECMG 1905/1906 19009KT 2400 -SN BR SCT005 OVC015 620159 QNH2896INS TX01/1819Z TNM05/1808Z
PAAQ 
21nm E 
180540Z 1806/1906 12012G22KT P6SM BKN200 FM181200 04012G22KT P6SM VCSH BKN060 FM181800 04028G40KT P6SM VCSH BKN050 FM190300 04012KT P6SM -RASN OVC035
NOTAMs
Click for the latest NOTAMs
NOTAMs are issued by the DoD/FAA and will open in a separate window not controlled by AirNav.

 

 
 

Would you like to see your business listed on this page?

 If your business provides an interesting product or service to pilots, flight crews, aircraft, or users of the Cubdivision Airport, you should consider listing it here.  To start the listing process, click on the button below
 
Add a business
 

Other Pages about Cubdivision Airport

Update a link
 
Copyright © AirNav, LLC. All rights reserved. Privacy Policy  Contact